sensor_id;sensor_type;location;lat;lon;timestamp;P1;durP1;ratioP1;P2;durP2;ratioP2
78143;SDS011;67394;52.522;13.622;2023-04-19T00:01:26;5.53;;;3.47;;
78143;SDS011;67394;52.522;13.622;2023-04-19T00:03:53;6.93;;;3.78;;
78143;SDS011;67394;52.522;13.622;2023-04-19T00:08:46;5.03;;;3.20;;
78143;SDS011;67394;52.522;13.622;2023-04-19T00:11:13;6.53;;;3.53;;
78143;SDS011;67394;52.522;13.622;2023-04-19T00:13:39;5.72;;;3.30;;
78143;SDS011;67394;52.522;13.622;2023-04-19T00:16:05;7.97;;;3.90;;
78143;SDS011;67394;52.522;13.622;2023-04-19T00:18:32;6.43;;;3.38;;
78143;SDS011;67394;52.522;13.622;2023-04-19T00:20:58;5.38;;;3.13;;
78143;SDS011;67394;52.522;13.622;2023-04-19T00:23:25;5.35;;;3.03;;
78143;SDS011;67394;52.522;13.622;2023-04-19T00:25:53;7.22;;;3.25;;
78143;SDS011;67394;52.522;13.622;2023-04-19T00:28:20;4.93;;;3.30;;
78143;SDS011;67394;52.522;13.622;2023-04-19T00:30:46;6.70;;;3.28;;
78143;SDS011;67394;52.522;13.622;2023-04-19T00:33:12;7.63;;;4.35;;
78143;SDS011;67394;52.522;13.622;2023-04-19T00:35:39;3.97;;;2.70;;
78143;SDS011;67394;52.522;13.622;2023-04-19T00:38:06;7.65;;;3.45;;
78143;SDS011;67394;52.522;13.622;2023-04-19T00:40:36;7.43;;;2.97;;
78143;SDS011;67394;52.522;13.622;2023-04-19T00:43:03;5.30;;;3.00;;
78143;SDS011;67394;52.522;13.622;2023-04-19T00:45:31;6.60;;;3.28;;
78143;SDS011;67394;52.522;13.622;2023-04-19T00:47:59;6.20;;;3.25;;
78143;SDS011;67394;52.522;13.622;2023-04-19T00:50:26;5.97;;;3.22;;
78143;SDS011;67394;52.522;13.622;2023-04-19T00:52:53;4.63;;;2.80;;
78143;SDS011;67394;52.522;13.622;2023-04-19T00:55:21;6.60;;;3.25;;
78143;SDS011;67394;52.522;13.622;2023-04-19T00:57:48;5.97;;;2.92;;
78143;SDS011;67394;52.522;13.622;2023-04-19T01:00:15;5.13;;;3.42;;
78143;SDS011;67394;52.522;13.622;2023-04-19T01:02:44;7.20;;;3.63;;
78143;SDS011;67394;52.522;13.622;2023-04-19T01:05:11;4.13;;;2.88;;
78143;SDS011;67394;52.522;13.622;2023-04-19T01:07:37;6.22;;;3.58;;
78143;SDS011;67394;52.522;13.622;2023-04-19T01:10:04;8.30;;;2.97;;
78143;SDS011;67394;52.522;13.622;2023-04-19T01:12:30;7.05;;;3.05;;
78143;SDS011;67394;52.522;13.622;2023-04-19T01:14:57;4.97;;;2.90;;
78143;SDS011;67394;52.522;13.622;2023-04-19T01:17:23;8.02;;;3.08;;
78143;SDS011;67394;52.522;13.622;2023-04-19T01:20:02;4.22;;;2.70;;
78143;SDS011;67394;52.522;13.622;2023-04-19T01:22:30;4.90;;;2.58;;
78143;SDS011;67394;52.522;13.622;2023-04-19T01:24:56;5.82;;;3.25;;
78143;SDS011;67394;52.522;13.622;2023-04-19T01:27:22;5.88;;;3.03;;
78143;SDS011;67394;52.522;13.622;2023-04-19T01:29:49;4.82;;;2.90;;
78143;SDS011;67394;52.522;13.622;2023-04-19T01:32:15;4.60;;;3.05;;
78143;SDS011;67394;52.522;13.622;2023-04-19T01:34:42;6.78;;;2.67;;
78143;SDS011;67394;52.522;13.622;2023-04-19T01:37:08;4.55;;;2.90;;
78143;SDS011;67394;52.522;13.622;2023-04-19T01:39:34;7.35;;;3.38;;
78143;SDS011;67394;52.522;13.622;2023-04-19T01:42:01;4.75;;;2.78;;
78143;SDS011;67394;52.522;13.622;2023-04-19T01:44:27;4.53;;;2.75;;
78143;SDS011;67394;52.522;13.622;2023-04-19T01:46:53;4.38;;;3.03;;
78143;SDS011;67394;52.522;13.622;2023-04-19T01:49:20;5.18;;;2.92;;
78143;SDS011;67394;52.522;13.622;2023-04-19T01:51:46;4.28;;;2.63;;
78143;SDS011;67394;52.522;13.622;2023-04-19T01:54:13;4.50;;;2.97;;
78143;SDS011;67394;52.522;13.622;2023-04-19T01:56:39;6.72;;;2.90;;
78143;SDS011;67394;52.522;13.622;2023-04-19T01:59:06;6.65;;;2.80;;
78143;SDS011;67394;52.522;13.622;2023-04-19T02:01:32;5.57;;;2.85;;
78143;SDS011;67394;52.522;13.622;2023-04-19T02:03:58;7.60;;;3.00;;
78143;SDS011;67394;52.522;13.622;2023-04-19T02:06:28;5.43;;;3.17;;
78143;SDS011;67394;52.522;13.622;2023-04-19T02:08:54;4.72;;;3.92;;
78143;SDS011;67394;52.522;13.622;2023-04-19T02:11:21;5.78;;;3.05;;
78143;SDS011;67394;52.522;13.622;2023-04-19T02:13:47;5.70;;;3.28;;
78143;SDS011;67394;52.522;13.622;2023-04-19T02:16:13;4.72;;;2.90;;
78143;SDS011;67394;52.522;13.622;2023-04-19T02:18:40;5.03;;;3.00;;
78143;SDS011;67394;52.522;13.622;2023-04-19T02:21:06;4.72;;;3.03;;
78143;SDS011;67394;52.522;13.622;2023-04-19T02:23:34;5.72;;;2.97;;
78143;SDS011;67394;52.522;13.622;2023-04-19T02:26:00;5.22;;;2.92;;
78143;SDS011;67394;52.522;13.622;2023-04-19T02:28:28;4.25;;;2.70;;
78143;SDS011;67394;52.522;13.622;2023-04-19T02:30:55;5.25;;;2.78;;
78143;SDS011;67394;52.522;13.622;2023-04-19T02:33:21;5.63;;;2.78;;
78143;SDS011;67394;52.522;13.622;2023-04-19T02:35:47;5.30;;;2.67;;
78143;SDS011;67394;52.522;13.622;2023-04-19T02:38:14;4.60;;;2.33;;
78143;SDS011;67394;52.522;13.622;2023-04-19T02:40:40;5.75;;;2.75;;
78143;SDS011;67394;52.522;13.622;2023-04-19T02:43:06;5.70;;;3.03;;
78143;SDS011;67394;52.522;13.622;2023-04-19T02:45:33;4.82;;;2.90;;
78143;SDS011;67394;52.522;13.622;2023-04-19T02:47:59;5.57;;;2.80;;
78143;SDS011;67394;52.522;13.622;2023-04-19T02:50:25;5.18;;;2.40;;
78143;SDS011;67394;52.522;13.622;2023-04-19T02:52:52;7.53;;;2.80;;
78143;SDS011;67394;52.522;13.622;2023-04-19T02:55:19;6.03;;;2.72;;
78143;SDS011;67394;52.522;13.622;2023-04-19T02:57:45;5.75;;;3.00;;
78143;SDS011;67394;52.522;13.622;2023-04-19T03:00:11;4.85;;;2.60;;
78143;SDS011;67394;52.522;13.622;2023-04-19T03:02:38;3.80;;;2.35;;
78143;SDS011;67394;52.522;13.622;2023-04-19T03:05:05;4.25;;;2.80;;
78143;SDS011;67394;52.522;13.622;2023-04-19T03:07:31;5.18;;;2.63;;
78143;SDS011;67394;52.522;13.622;2023-04-19T03:09:57;6.05;;;2.40;;
78143;SDS011;67394;52.522;13.622;2023-04-19T03:12:24;4.68;;;2.72;;
78143;SDS011;67394;52.522;13.622;2023-04-19T03:14:50;6.35;;;2.75;;
78143;SDS011;67394;52.522;13.622;2023-04-19T03:17:16;4.72;;;2.78;;
78143;SDS011;67394;52.522;13.622;2023-04-19T03:19:43;5.45;;;2.65;;
78143;SDS011;67394;52.522;13.622;2023-04-19T03:22:09;5.50;;;2.70;;
78143;SDS011;67394;52.522;13.622;2023-04-19T03:24:35;5.82;;;2.72;;
78143;SDS011;67394;52.522;13.622;2023-04-19T03:27:03;5.00;;;2.78;;
78143;SDS011;67394;52.522;13.622;2023-04-19T03:29:29;4.20;;;2.55;;
78143;SDS011;67394;52.522;13.622;2023-04-19T03:31:56;6.85;;;2.80;;
78143;SDS011;67394;52.522;13.622;2023-04-19T03:34:22;5.53;;;2.13;;
78143;SDS011;67394;52.522;13.622;2023-04-19T03:36:48;5.28;;;2.28;;
78143;SDS011;67394;52.522;13.622;2023-04-19T03:39:15;5.20;;;2.55;;
78143;SDS011;67394;52.522;13.622;2023-04-19T03:41:41;11.70;;;6.55;;
78143;SDS011;67394;52.522;13.622;2023-04-19T03:44:07;6.00;;;4.30;;
78143;SDS011;67394;52.522;13.622;2023-04-19T03:46:34;5.93;;;3.67;;
78143;SDS011;67394;52.522;13.622;2023-04-19T03:49:00;4.40;;;2.50;;
78143;SDS011;67394;52.522;13.622;2023-04-19T03:51:26;3.95;;;2.60;;
78143;SDS011;67394;52.522;13.622;2023-04-19T03:53:53;5.25;;;2.63;;
78143;SDS011;67394;52.522;13.622;2023-04-19T03:56:19;5.18;;;2.53;;
78143;SDS011;67394;52.522;13.622;2023-04-19T03:58:45;7.60;;;3.05;;
78143;SDS011;67394;52.522;13.622;2023-04-19T04:01:20;4.43;;;2.67;;
78143;SDS011;67394;52.522;13.622;2023-04-19T04:03:47;4.30;;;2.67;;
78143;SDS011;67394;52.522;13.622;2023-04-19T04:06:14;4.10;;;2.55;;
78143;SDS011;67394;52.522;13.622;2023-04-19T04:08:41;5.10;;;2.75;;
78143;SDS011;67394;52.522;13.622;2023-04-19T04:11:07;4.63;;;2.95;;
78143;SDS011;67394;52.522;13.622;2023-04-19T04:13:33;4.10;;;3.17;;
78143;SDS011;67394;52.522;13.622;2023-04-19T04:16:00;5.30;;;4.13;;
78143;SDS011;67394;52.522;13.622;2023-04-19T04:18:26;7.22;;;4.38;;
78143;SDS011;67394;52.522;13.622;2023-04-19T04:20:52;5.50;;;3.20;;
78143;SDS011;67394;52.522;13.622;2023-04-19T04:23:19;6.32;;;4.55;;
78143;SDS011;67394;52.522;13.622;2023-04-19T04:25:45;5.68;;;2.45;;
78143;SDS011;67394;52.522;13.622;2023-04-19T04:28:14;10.77;;;7.32;;
78143;SDS011;67394;52.522;13.622;2023-04-19T04:30:40;7.18;;;5.00;;
78143;SDS011;67394;52.522;13.622;2023-04-19T04:33:06;6.70;;;3.85;;
78143;SDS011;67394;52.522;13.622;2023-04-19T04:35:33;21.40;;;11.88;;
78143;SDS011;67394;52.522;13.622;2023-04-19T04:37:59;15.48;;;8.23;;
78143;SDS011;67394;52.522;13.622;2023-04-19T04:40:29;16.83;;;9.15;;
78143;SDS011;67394;52.522;13.622;2023-04-19T04:42:55;19.48;;;9.60;;
78143;SDS011;67394;52.522;13.622;2023-04-19T04:45:22;8.90;;;5.57;;
78143;SDS011;67394;52.522;13.622;2023-04-19T04:47:48;8.30;;;5.15;;
78143;SDS011;67394;52.522;13.622;2023-04-19T04:50:14;8.13;;;3.22;;
78143;SDS011;67394;52.522;13.622;2023-04-19T04:52:41;13.13;;;6.78;;
78143;SDS011;67394;52.522;13.622;2023-04-19T04:55:07;10.55;;;6.68;;
78143;SDS011;67394;52.522;13.622;2023-04-19T04:57:34;12.15;;;7.72;;
78143;SDS011;67394;52.522;13.622;2023-04-19T05:00:00;8.48;;;3.85;;
78143;SDS011;67394;52.522;13.622;2023-04-19T05:02:26;4.75;;;2.60;;
78143;SDS011;67394;52.522;13.622;2023-04-19T05:04:53;4.05;;;2.80;;
78143;SDS011;67394;52.522;13.622;2023-04-19T05:07:19;4.97;;;2.38;;
78143;SDS011;67394;52.522;13.622;2023-04-19T05:09:45;4.50;;;2.58;;
78143;SDS011;67394;52.522;13.622;2023-04-19T05:12:12;7.40;;;2.45;;
78143;SDS011;67394;52.522;13.622;2023-04-19T05:14:38;5.78;;;3.33;;
78143;SDS011;67394;52.522;13.622;2023-04-19T05:17:04;5.18;;;2.63;;
78143;SDS011;67394;52.522;13.622;2023-04-19T05:21:58;6.53;;;2.70;;
78143;SDS011;67394;52.522;13.622;2023-04-19T05:24:24;4.80;;;2.50;;
78143;SDS011;67394;52.522;13.622;2023-04-19T05:26:51;7.15;;;2.30;;
78143;SDS011;67394;52.522;13.622;2023-04-19T05:29:17;6.85;;;2.88;;
78143;SDS011;67394;52.522;13.622;2023-04-19T05:31:44;6.05;;;2.97;;
78143;SDS011;67394;52.522;13.622;2023-04-19T05:34:10;7.30;;;2.65;;
78143;SDS011;67394;52.522;13.622;2023-04-19T05:36:37;5.40;;;2.22;;
78143;SDS011;67394;52.522;13.622;2023-04-19T05:39:03;4.50;;;2.38;;
78143;SDS011;67394;52.522;13.622;2023-04-19T05:41:29;4.38;;;2.13;;
78143;SDS011;67394;52.522;13.622;2023-04-19T05:43:55;4.45;;;2.03;;
78143;SDS011;67394;52.522;13.622;2023-04-19T05:46:22;4.55;;;2.00;;
78143;SDS011;67394;52.522;13.622;2023-04-19T05:48:48;4.07;;;2.28;;
78143;SDS011;67394;52.522;13.622;2023-04-19T05:51:14;3.83;;;2.03;;
78143;SDS011;67394;52.522;13.622;2023-04-19T05:53:41;3.85;;;1.90;;
78143;SDS011;67394;52.522;13.622;2023-04-19T05:56:07;4.78;;;2.40;;
78143;SDS011;67394;52.522;13.622;2023-04-19T05:58:33;4.80;;;2.08;;
78143;SDS011;67394;52.522;13.622;2023-04-19T06:01:00;3.80;;;1.63;;
78143;SDS011;67394;52.522;13.622;2023-04-19T06:03:27;5.05;;;2.60;;
78143;SDS011;67394;52.522;13.622;2023-04-19T06:05:57;4.05;;;1.92;;
78143;SDS011;67394;52.522;13.622;2023-04-19T06:08:24;4.38;;;2.20;;
78143;SDS011;67394;52.522;13.622;2023-04-19T06:10:51;5.05;;;2.25;;
78143;SDS011;67394;52.522;13.622;2023-04-19T06:13:22;5.45;;;2.28;;
78143;SDS011;67394;52.522;13.622;2023-04-19T06:15:48;6.68;;;2.25;;
78143;SDS011;67394;52.522;13.622;2023-04-19T06:18:14;4.70;;;2.28;;
78143;SDS011;67394;52.522;13.622;2023-04-19T06:20:45;4.80;;;2.40;;
78143;SDS011;67394;52.522;13.622;2023-04-19T06:23:12;4.20;;;2.30;;
78143;SDS011;67394;52.522;13.622;2023-04-19T06:25:39;4.85;;;1.80;;
78143;SDS011;67394;52.522;13.622;2023-04-19T06:28:05;4.05;;;2.15;;
78143;SDS011;67394;52.522;13.622;2023-04-19T06:30:32;3.75;;;2.25;;
78143;SDS011;67394;52.522;13.622;2023-04-19T06:32:58;7.18;;;3.65;;
78143;SDS011;67394;52.522;13.622;2023-04-19T06:35:24;3.40;;;1.88;;
78143;SDS011;67394;52.522;13.622;2023-04-19T06:37:51;4.05;;;1.90;;
78143;SDS011;67394;52.522;13.622;2023-04-19T06:40:17;5.45;;;2.30;;
78143;SDS011;67394;52.522;13.622;2023-04-19T06:42:43;7.65;;;2.63;;
78143;SDS011;67394;52.522;13.622;2023-04-19T06:45:10;4.47;;;2.10;;
78143;SDS011;67394;52.522;13.622;2023-04-19T06:47:36;5.72;;;2.13;;
78143;SDS011;67394;52.522;13.622;2023-04-19T06:50:03;3.88;;;2.67;;
78143;SDS011;67394;52.522;13.622;2023-04-19T06:52:30;6.32;;;2.50;;
78143;SDS011;67394;52.522;13.622;2023-04-19T06:54:56;6.15;;;2.40;;
78143;SDS011;67394;52.522;13.622;2023-04-19T06:57:22;2.97;;;2.03;;
78143;SDS011;67394;52.522;13.622;2023-04-19T06:59:49;5.18;;;3.15;;
78143;SDS011;67394;52.522;13.622;2023-04-19T07:02:15;6.20;;;2.38;;
78143;SDS011;67394;52.522;13.622;2023-04-19T07:04:41;6.80;;;3.42;;
78143;SDS011;67394;52.522;13.622;2023-04-19T07:07:08;4.05;;;2.10;;
78143;SDS011;67394;52.522;13.622;2023-04-19T07:09:36;9.45;;;2.35;;
78143;SDS011;67394;52.522;13.622;2023-04-19T07:12:02;6.00;;;3.53;;
78143;SDS011;67394;52.522;13.622;2023-04-19T07:14:29;5.25;;;1.70;;
78143;SDS011;67394;52.522;13.622;2023-04-19T07:16:55;3.58;;;2.00;;
78143;SDS011;67394;52.522;13.622;2023-04-19T07:19:21;3.65;;;2.25;;
78143;SDS011;67394;52.522;13.622;2023-04-19T07:21:48;3.78;;;1.90;;
78143;SDS011;67394;52.522;13.622;2023-04-19T07:24:16;4.78;;;2.17;;
78143;SDS011;67394;52.522;13.622;2023-04-19T07:26:43;4.75;;;2.50;;
78143;SDS011;67394;52.522;13.622;2023-04-19T07:29:10;10.05;;;2.22;;
78143;SDS011;67394;52.522;13.622;2023-04-19T07:31:38;4.97;;;2.38;;
78143;SDS011;67394;52.522;13.622;2023-04-19T07:34:04;4.07;;;2.28;;
78143;SDS011;67394;52.522;13.622;2023-04-19T07:36:31;3.97;;;2.10;;
78143;SDS011;67394;52.522;13.622;2023-04-19T07:38:57;3.30;;;2.20;;
78143;SDS011;67394;52.522;13.622;2023-04-19T07:41:23;6.97;;;2.40;;
78143;SDS011;67394;52.522;13.622;2023-04-19T07:43:50;5.53;;;1.98;;
78143;SDS011;67394;52.522;13.622;2023-04-19T07:46:16;6.32;;;2.35;;
78143;SDS011;67394;52.522;13.622;2023-04-19T07:48:43;3.75;;;2.30;;
78143;SDS011;67394;52.522;13.622;2023-04-19T07:51:10;4.47;;;2.33;;
78143;SDS011;67394;52.522;13.622;2023-04-19T07:53:37;5.03;;;2.83;;
78143;SDS011;67394;52.522;13.622;2023-04-19T07:56:05;4.30;;;2.42;;
78143;SDS011;67394;52.522;13.622;2023-04-19T08:01:04;5.43;;;2.10;;
78143;SDS011;67394;52.522;13.622;2023-04-19T08:03:32;3.97;;;2.00;;
78143;SDS011;67394;52.522;13.622;2023-04-19T08:06:03;4.07;;;1.90;;
78143;SDS011;67394;52.522;13.622;2023-04-19T08:08:30;4.25;;;2.08;;
78143;SDS011;67394;52.522;13.622;2023-04-19T08:10:59;5.60;;;2.13;;
78143;SDS011;67394;52.522;13.622;2023-04-19T08:13:27;3.95;;;2.22;;
78143;SDS011;67394;52.522;13.622;2023-04-19T08:18:23;5.03;;;2.38;;
78143;SDS011;67394;52.522;13.622;2023-04-19T08:20:50;4.22;;;2.33;;
78143;SDS011;67394;52.522;13.622;2023-04-19T08:23:16;4.78;;;2.60;;
78143;SDS011;67394;52.522;13.622;2023-04-19T08:25:51;5.28;;;2.42;;
78143;SDS011;67394;52.522;13.622;2023-04-19T08:28:17;4.45;;;2.65;;
78143;SDS011;67394;52.522;13.622;2023-04-19T08:30:44;4.05;;;2.33;;
78143;SDS011;67394;52.522;13.622;2023-04-19T08:33:10;4.18;;;2.35;;
78143;SDS011;67394;52.522;13.622;2023-04-19T08:35:37;4.65;;;2.90;;
78143;SDS011;67394;52.522;13.622;2023-04-19T08:38:04;5.95;;;3.78;;
78143;SDS011;67394;52.522;13.622;2023-04-19T08:40:30;4.68;;;2.45;;
78143;SDS011;67394;52.522;13.622;2023-04-19T08:42:56;4.05;;;2.45;;
78143;SDS011;67394;52.522;13.622;2023-04-19T08:45:25;3.60;;;2.38;;
78143;SDS011;67394;52.522;13.622;2023-04-19T08:47:55;4.00;;;2.35;;
78143;SDS011;67394;52.522;13.622;2023-04-19T08:50:27;7.05;;;3.15;;
78143;SDS011;67394;52.522;13.622;2023-04-19T08:53:03;4.97;;;2.78;;
78143;SDS011;67394;52.522;13.622;2023-04-19T08:55:49;6.13;;;2.50;;
78143;SDS011;67394;52.522;13.622;2023-04-19T08:58:36;7.07;;;3.15;;
78143;SDS011;67394;52.522;13.622;2023-04-19T09:01:23;6.22;;;3.13;;
78143;SDS011;67394;52.522;13.622;2023-04-19T09:04:01;7.38;;;3.30;;
78143;SDS011;67394;52.522;13.622;2023-04-19T09:06:51;4.15;;;2.67;;
78143;SDS011;67394;52.522;13.622;2023-04-19T09:09:19;3.88;;;2.55;;
78143;SDS011;67394;52.522;13.622;2023-04-19T09:11:49;7.10;;;2.85;;
78143;SDS011;67394;52.522;13.622;2023-04-19T09:14:16;5.13;;;2.75;;
78143;SDS011;67394;52.522;13.622;2023-04-19T09:16:44;5.78;;;2.70;;
78143;SDS011;67394;52.522;13.622;2023-04-19T09:19:11;4.65;;;3.03;;
78143;SDS011;67394;52.522;13.622;2023-04-19T09:21:50;4.57;;;2.60;;
78143;SDS011;67394;52.522;13.622;2023-04-19T09:24:16;4.95;;;2.42;;
78143;SDS011;67394;52.522;13.622;2023-04-19T09:26:52;4.28;;;2.78;;
78143;SDS011;67394;52.522;13.622;2023-04-19T09:29:20;3.78;;;2.40;;
78143;SDS011;67394;52.522;13.622;2023-04-19T09:31:55;5.70;;;2.85;;
78143;SDS011;67394;52.522;13.622;2023-04-19T09:34:25;5.70;;;2.90;;
78143;SDS011;67394;52.522;13.622;2023-04-19T09:36:52;5.90;;;3.00;;
78143;SDS011;67394;52.522;13.622;2023-04-19T09:39:36;4.45;;;2.67;;
78143;SDS011;67394;52.522;13.622;2023-04-19T09:42:03;8.63;;;3.17;;
78143;SDS011;67394;52.522;13.622;2023-04-19T09:44:29;4.50;;;3.28;;
78143;SDS011;67394;52.522;13.622;2023-04-19T09:46:58;5.45;;;2.67;;
78143;SDS011;67394;52.522;13.622;2023-04-19T09:49:25;4.03;;;2.80;;
78143;SDS011;67394;52.522;13.622;2023-04-19T09:52:12;5.13;;;2.65;;
78143;SDS011;67394;52.522;13.622;2023-04-19T09:54:39;5.07;;;2.80;;
78143;SDS011;67394;52.522;13.622;2023-04-19T09:57:07;6.00;;;3.35;;
78143;SDS011;67394;52.522;13.622;2023-04-19T09:59:33;6.40;;;3.00;;
78143;SDS011;67394;52.522;13.622;2023-04-19T10:01:59;4.50;;;2.78;;
78143;SDS011;67394;52.522;13.622;2023-04-19T10:04:30;4.95;;;2.50;;
78143;SDS011;67394;52.522;13.622;2023-04-19T10:07:16;4.45;;;2.65;;
78143;SDS011;67394;52.522;13.622;2023-04-19T10:09:56;4.28;;;2.63;;
78143;SDS011;67394;52.522;13.622;2023-04-19T10:12:41;4.82;;;2.55;;
78143;SDS011;67394;52.522;13.622;2023-04-19T10:15:34;5.22;;;2.67;;
78143;SDS011;67394;52.522;13.622;2023-04-19T10:18:16;4.75;;;2.53;;
78143;SDS011;67394;52.522;13.622;2023-04-19T10:20:48;4.32;;;3.08;;
78143;SDS011;67394;52.522;13.622;2023-04-19T10:23:26;7.45;;;3.58;;
78143;SDS011;67394;52.522;13.622;2023-04-19T10:25:54;5.90;;;3.15;;
78143;SDS011;67394;52.522;13.622;2023-04-19T10:28:22;4.35;;;2.70;;
78143;SDS011;67394;52.522;13.622;2023-04-19T10:30:57;7.10;;;3.15;;
78143;SDS011;67394;52.522;13.622;2023-04-19T10:33:36;4.57;;;2.83;;
78143;SDS011;67394;52.522;13.622;2023-04-19T10:36:03;3.97;;;2.60;;
78143;SDS011;67394;52.522;13.622;2023-04-19T10:38:39;5.38;;;3.08;;
78143;SDS011;67394;52.522;13.622;2023-04-19T10:41:11;7.25;;;3.33;;
78143;SDS011;67394;52.522;13.622;2023-04-19T10:44:08;7.13;;;2.83;;
78143;SDS011;67394;52.522;13.622;2023-04-19T10:46:35;6.85;;;3.50;;
78143;SDS011;67394;52.522;13.622;2023-04-19T10:49:04;6.75;;;3.05;;
78143;SDS011;67394;52.522;13.622;2023-04-19T10:51:32;5.32;;;2.78;;
78143;SDS011;67394;52.522;13.622;2023-04-19T10:54:00;5.88;;;3.22;;
78143;SDS011;67394;52.522;13.622;2023-04-19T11:04:09;6.95;;;3.10;;
78143;SDS011;67394;52.522;13.622;2023-04-19T11:06:37;7.47;;;3.45;;
78143;SDS011;67394;52.522;13.622;2023-04-19T11:09:21;5.13;;;2.90;;
78143;SDS011;67394;52.522;13.622;2023-04-19T11:11:52;6.72;;;2.80;;
78143;SDS011;67394;52.522;13.622;2023-04-19T11:14:20;5.43;;;3.03;;
78143;SDS011;67394;52.522;13.622;2023-04-19T11:19:16;7.10;;;3.03;;
78143;SDS011;67394;52.522;13.622;2023-04-19T11:21:46;5.28;;;2.75;;
78143;SDS011;67394;52.522;13.622;2023-04-19T11:24:14;6.38;;;2.90;;
78143;SDS011;67394;52.522;13.622;2023-04-19T11:26:44;5.57;;;3.85;;
78143;SDS011;67394;52.522;13.622;2023-04-19T11:29:11;5.43;;;2.75;;
78143;SDS011;67394;52.522;13.622;2023-04-19T11:31:37;5.72;;;3.08;;
78143;SDS011;67394;52.522;13.622;2023-04-19T11:34:04;4.50;;;2.90;;
78143;SDS011;67394;52.522;13.622;2023-04-19T11:36:30;5.43;;;3.05;;
78143;SDS011;67394;52.522;13.622;2023-04-19T11:38:57;9.07;;;3.30;;
78143;SDS011;67394;52.522;13.622;2023-04-19T11:41:23;4.40;;;2.80;;
78143;SDS011;67394;52.522;13.622;2023-04-19T11:43:50;6.38;;;2.67;;
78143;SDS011;67394;52.522;13.622;2023-04-19T11:46:17;6.03;;;3.05;;
78143;SDS011;67394;52.522;13.622;2023-04-19T11:48:53;5.32;;;3.20;;
78143;SDS011;67394;52.522;13.622;2023-04-19T11:51:19;4.88;;;2.58;;
78143;SDS011;67394;52.522;13.622;2023-04-19T11:53:46;4.40;;;2.95;;
78143;SDS011;67394;52.522;13.622;2023-04-19T11:56:12;6.03;;;2.97;;
78143;SDS011;67394;52.522;13.622;2023-04-19T11:58:43;6.05;;;3.40;;
78143;SDS011;67394;52.522;13.622;2023-04-19T12:01:14;4.68;;;2.85;;
78143;SDS011;67394;52.522;13.622;2023-04-19T12:03:48;5.03;;;3.13;;
78143;SDS011;67394;52.522;13.622;2023-04-19T12:06:17;5.40;;;2.97;;
78143;SDS011;67394;52.522;13.622;2023-04-19T12:08:49;8.50;;;3.00;;
78143;SDS011;67394;52.522;13.622;2023-04-19T12:11:17;5.30;;;2.80;;
78143;SDS011;67394;52.522;13.622;2023-04-19T12:13:45;6.32;;;2.63;;
78143;SDS011;67394;52.522;13.622;2023-04-19T12:16:11;5.20;;;2.92;;
78143;SDS011;67394;52.522;13.622;2023-04-19T12:18:42;5.13;;;2.83;;
78143;SDS011;67394;52.522;13.622;2023-04-19T12:21:22;5.35;;;2.95;;
78143;SDS011;67394;52.522;13.622;2023-04-19T12:23:49;6.78;;;3.13;;
78143;SDS011;67394;52.522;13.622;2023-04-19T12:26:15;4.72;;;2.80;;
78143;SDS011;67394;52.522;13.622;2023-04-19T12:28:42;6.47;;;3.38;;
78143;SDS011;67394;52.522;13.622;2023-04-19T12:31:08;5.78;;;2.55;;
78143;SDS011;67394;52.522;13.622;2023-04-19T12:33:35;5.22;;;2.75;;
78143;SDS011;67394;52.522;13.622;2023-04-19T12:36:05;5.38;;;3.13;;
78143;SDS011;67394;52.522;13.622;2023-04-19T12:38:31;9.73;;;3.95;;
78143;SDS011;67394;52.522;13.622;2023-04-19T12:40:58;6.13;;;3.20;;
78143;SDS011;67394;52.522;13.622;2023-04-19T12:43:24;6.28;;;3.20;;
78143;SDS011;67394;52.522;13.622;2023-04-19T12:45:50;5.85;;;2.92;;
78143;SDS011;67394;52.522;13.622;2023-04-19T12:48:16;7.38;;;3.15;;
78143;SDS011;67394;52.522;13.622;2023-04-19T12:50:43;8.90;;;3.38;;
78143;SDS011;67394;52.522;13.622;2023-04-19T12:53:09;5.45;;;3.40;;
78143;SDS011;67394;52.522;13.622;2023-04-19T12:55:36;6.57;;;3.20;;
78143;SDS011;67394;52.522;13.622;2023-04-19T12:58:02;4.80;;;3.03;;
78143;SDS011;67394;52.522;13.622;2023-04-19T13:00:28;5.43;;;3.40;;
78143;SDS011;67394;52.522;13.622;2023-04-19T13:02:55;7.28;;;3.55;;
78143;SDS011;67394;52.522;13.622;2023-04-19T13:05:21;7.53;;;2.90;;
78143;SDS011;67394;52.522;13.622;2023-04-19T13:07:48;5.28;;;2.80;;
78143;SDS011;67394;52.522;13.622;2023-04-19T13:10:15;6.35;;;3.40;;
78143;SDS011;67394;52.522;13.622;2023-04-19T13:12:44;5.97;;;3.38;;
78143;SDS011;67394;52.522;13.622;2023-04-19T13:15:10;6.65;;;3.75;;
78143;SDS011;67394;52.522;13.622;2023-04-19T13:17:37;5.72;;;3.13;;
78143;SDS011;67394;52.522;13.622;2023-04-19T13:20:03;5.30;;;3.10;;
78143;SDS011;67394;52.522;13.622;2023-04-19T13:22:31;6.25;;;3.10;;
78143;SDS011;67394;52.522;13.622;2023-04-19T13:24:57;7.47;;;3.40;;
78143;SDS011;67394;52.522;13.622;2023-04-19T13:27:23;7.32;;;3.17;;
78143;SDS011;67394;52.522;13.622;2023-04-19T13:29:50;6.03;;;2.85;;
78143;SDS011;67394;52.522;13.622;2023-04-19T13:32:16;6.90;;;2.88;;
78143;SDS011;67394;52.522;13.622;2023-04-19T13:34:42;5.22;;;3.00;;
78143;SDS011;67394;52.522;13.622;2023-04-19T13:37:09;5.53;;;2.67;;
78143;SDS011;67394;52.522;13.622;2023-04-19T13:39:35;5.88;;;2.97;;
78143;SDS011;67394;52.522;13.622;2023-04-19T13:42:02;4.90;;;3.03;;
78143;SDS011;67394;52.522;13.622;2023-04-19T13:44:28;5.97;;;3.00;;
78143;SDS011;67394;52.522;13.622;2023-04-19T13:46:54;5.57;;;3.10;;
78143;SDS011;67394;52.522;13.622;2023-04-19T13:49:21;7.25;;;3.00;;
78143;SDS011;67394;52.522;13.622;2023-04-19T13:51:48;4.60;;;2.95;;
78143;SDS011;67394;52.522;13.622;2023-04-19T13:54:16;7.10;;;3.00;;
78143;SDS011;67394;52.522;13.622;2023-04-19T13:56:45;8.73;;;3.97;;
78143;SDS011;67394;52.522;13.622;2023-04-19T13:59:11;5.32;;;3.30;;
78143;SDS011;67394;52.522;13.622;2023-04-19T14:01:37;4.78;;;2.80;;
78143;SDS011;67394;52.522;13.622;2023-04-19T14:04:04;7.75;;;3.40;;
78143;SDS011;67394;52.522;13.622;2023-04-19T14:06:30;5.22;;;3.05;;
78143;SDS011;67394;52.522;13.622;2023-04-19T14:08:57;6.13;;;3.35;;
78143;SDS011;67394;52.522;13.622;2023-04-19T14:11:26;5.30;;;3.50;;
78143;SDS011;67394;52.522;13.622;2023-04-19T14:13:52;7.85;;;4.00;;
78143;SDS011;67394;52.522;13.622;2023-04-19T14:16:19;7.45;;;3.63;;
78143;SDS011;67394;52.522;13.622;2023-04-19T14:21:12;6.75;;;3.53;;
78143;SDS011;67394;52.522;13.622;2023-04-19T14:23:38;5.75;;;3.30;;
78143;SDS011;67394;52.522;13.622;2023-04-19T14:26:05;6.40;;;2.95;;
78143;SDS011;67394;52.522;13.622;2023-04-19T14:28:31;5.53;;;2.85;;
78143;SDS011;67394;52.522;13.622;2023-04-19T14:30:58;7.50;;;3.55;;
78143;SDS011;67394;52.522;13.622;2023-04-19T14:33:24;7.85;;;2.92;;
78143;SDS011;67394;52.522;13.622;2023-04-19T14:35:50;6.50;;;3.13;;
78143;SDS011;67394;52.522;13.622;2023-04-19T14:38:19;6.60;;;3.53;;
78143;SDS011;67394;52.522;13.622;2023-04-19T14:40:49;10.95;;;3.75;;
78143;SDS011;67394;52.522;13.622;2023-04-19T14:43:15;5.95;;;3.95;;
78143;SDS011;67394;52.522;13.622;2023-04-19T14:45:41;6.65;;;3.25;;
78143;SDS011;67394;52.522;13.622;2023-04-19T14:48:08;11.40;;;3.70;;
78143;SDS011;67394;52.522;13.622;2023-04-19T14:50:34;8.95;;;4.05;;
78143;SDS011;67394;52.522;13.622;2023-04-19T14:53:01;8.10;;;3.75;;
78143;SDS011;67394;52.522;13.622;2023-04-19T14:55:27;7.85;;;3.67;;
78143;SDS011;67394;52.522;13.622;2023-04-19T14:57:53;7.15;;;3.58;;
78143;SDS011;67394;52.522;13.622;2023-04-19T15:00:20;10.70;;;4.03;;